createdAt,value
2019-01-22T00:02:09.947Z,32.40
2019-01-22T00:04:38.267Z,31.63
2019-01-22T00:07:06.617Z,32.00
2019-01-22T00:09:34.942Z,30.90
2019-01-22T00:12:03.273Z,31.77
2019-01-22T00:14:31.544Z,33.93
2019-01-22T00:16:59.792Z,30.97
2019-01-22T00:19:28.115Z,31.53
2019-01-22T00:21:56.355Z,32.37
2019-01-22T00:24:24.737Z,34.47
2019-01-22T00:26:53.104Z,35.20
2019-01-22T00:29:21.378Z,36.03
2019-01-22T00:31:49.621Z,35.77
2019-01-22T00:34:17.986Z,37.27
2019-01-22T00:36:46.451Z,32.57
2019-01-22T00:39:14.715Z,33.80
2019-01-22T00:41:43.026Z,34.87
2019-01-22T00:44:11.287Z,33.53
2019-01-22T00:46:39.614Z,36.37
2019-01-22T00:49:07.948Z,32.30
2019-01-22T00:51:36.282Z,34.33
2019-01-22T00:54:04.829Z,31.93
2019-01-22T00:56:33.078Z,32.57
2019-01-22T00:59:01.407Z,33.87
2019-01-22T01:01:29.657Z,33.10
2019-01-22T01:03:58.018Z,35.20
2019-01-22T01:06:26.355Z,36.20
2019-01-22T01:08:54.904Z,35.13
2019-01-22T01:11:23.247Z,34.47
2019-01-22T01:13:51.498Z,33.93
2019-01-22T01:16:19.852Z,32.57
2019-01-22T01:18:48.088Z,34.60
2019-01-22T01:21:16.576Z,34.50
2019-01-22T01:23:45.369Z,37.10
2019-01-22T01:26:13.797Z,34.27
2019-01-22T01:28:42.174Z,35.17
2019-01-22T01:31:10.455Z,34.43
2019-01-22T01:33:38.734Z,35.30
2019-01-22T01:36:07.001Z,32.80
2019-01-22T01:38:35.705Z,35.87
2019-01-22T01:41:04.064Z,34.80
2019-01-22T01:43:32.333Z,34.00
2019-01-22T01:46:00.628Z,37.37
2019-01-22T01:48:28.883Z,37.10
2019-01-22T01:50:57.193Z,37.03
2019-01-22T01:53:25.824Z,36.20
2019-01-22T01:55:54.093Z,36.67
2019-01-22T01:58:22.369Z,39.83
2019-01-22T02:00:50.672Z,38.17
2019-01-22T02:03:19.004Z,39.13
2019-01-22T02:05:47.339Z,38.67
2019-01-22T02:08:16.701Z,36.23
2019-01-22T02:10:45.099Z,37.97
2019-01-22T02:13:13.359Z,38.43
2019-01-22T02:15:53.391Z,37.23
2019-01-22T02:18:48.972Z,35.50
2019-01-22T02:21:39.945Z,35.53
2019-01-22T02:24:11.795Z,33.43
2019-01-22T02:27:01.210Z,36.87
2019-01-22T02:29:35.726Z,32.07
2019-01-22T02:32:19.258Z,34.60
2019-01-22T02:34:50.876Z,34.20
2019-01-22T02:37:31.206Z,36.73
2019-01-22T02:40:08.606Z,37.53
2019-01-22T02:42:57.816Z,34.10
2019-01-22T02:45:53.040Z,35.53
2019-01-22T02:48:24.567Z,32.00
2019-01-22T02:51:04.673Z,36.07
2019-01-22T02:53:38.850Z,36.97
2019-01-22T02:56:33.319Z,34.63
2019-01-22T02:59:27.077Z,38.90
2019-01-22T03:02:23.953Z,34.07
2019-01-22T03:04:57.923Z,34.17
2019-01-22T03:07:47.157Z,33.87
2019-01-22T03:10:24.566Z,36.10
2019-01-22T03:13:13.700Z,34.73
2019-01-22T03:16:01.267Z,33.70
2019-01-22T03:18:41.570Z,37.03
2019-01-22T03:21:13.119Z,36.07
2019-01-22T03:24:02.100Z,37.13
2019-01-22T03:26:42.461Z,35.47
2019-01-22T03:29:22.939Z,34.57
2019-01-22T03:32:11.746Z,35.30
2019-01-22T03:34:49.450Z,31.87
2019-01-22T03:37:26.538Z,34.50
2019-01-22T03:40:00.476Z,36.77
2019-01-22T03:42:56.033Z,33.53
2019-01-22T03:45:33.187Z,33.47
2019-01-22T03:48:16.770Z,36.20
2019-01-22T03:51:06.194Z,37.20
2019-01-22T03:53:53.881Z,35.57
2019-01-22T03:56:31.469Z,33.40
2019-01-22T03:58:59.800Z,36.27
2019-01-22T04:01:28.064Z,37.90
2019-01-22T04:03:56.411Z,37.50
2019-01-22T04:06:24.843Z,35.97
2019-01-22T04:08:54.960Z,32.42
2019-01-22T04:11:24.630Z,34.73
2019-01-22T04:13:52.920Z,33.60
2019-01-22T04:16:21.189Z,36.90
2019-01-22T04:18:49.729Z,33.50
2019-01-22T04:21:19.342Z,35.70
2019-01-22T04:24:01.629Z,36.67
2019-01-22T04:26:29.723Z,37.37
2019-01-22T04:29:18.310Z,35.87
2019-01-22T04:31:50.396Z,37.63
2019-01-22T04:34:53.623Z,36.67
2019-01-22T04:37:30.674Z,35.90
2019-01-22T04:40:07.835Z,34.97
2019-01-22T04:42:48.743Z,36.43
2019-01-22T04:45:41.293Z,36.33
2019-01-22T04:48:12.787Z,37.67
2019-01-22T04:50:44.334Z,38.10
2019-01-22T04:53:24.899Z,36.87
2019-01-22T04:55:59.121Z,34.10
2019-01-22T04:58:31.001Z,35.43
2019-01-22T05:01:36.078Z,35.93
2019-01-22T05:04:10.661Z,35.40
2019-01-22T05:06:54.173Z,35.97
2019-01-22T05:09:55.587Z,36.60
2019-01-22T05:12:44.508Z,35.73
2019-01-22T05:15:18.568Z,36.83
2019-01-22T05:18:14.696Z,35.23
2019-01-22T05:21:05.805Z,36.07
2019-01-22T05:23:49.214Z,34.70
2019-01-22T05:26:21.673Z,36.97
2019-01-22T05:29:38.139Z,40.07
2019-01-22T05:32:18.657Z,38.57
2019-01-22T05:34:59.091Z,36.80
2019-01-22T05:37:39.822Z,33.47
2019-01-22T05:40:41.843Z,37.00
2019-01-22T05:43:16.335Z,38.30
2019-01-22T05:45:53.749Z,37.63
2019-01-22T05:48:31.411Z,34.10
2019-01-22T05:51:08.839Z,34.27
2019-01-22T05:54:24.949Z,36.90
2019-01-22T05:56:51.240Z,34.57
2019-01-22T05:59:34.537Z,39.43
2019-01-22T06:02:06.115Z,38.10
2019-01-22T06:04:58.960Z,37.63
2019-01-22T06:07:47.950Z,36.20
2019-01-22T06:10:38.577Z,36.00
2019-01-22T06:13:38.811Z,37.93
2019-01-22T06:16:15.989Z,40.07
2019-01-22T06:18:47.513Z,36.73
2019-01-22T06:21:40.103Z,40.57
2019-01-22T06:24:23.303Z,34.90
2019-01-22T06:27:00.720Z,36.17
2019-01-22T06:29:59.194Z,38.92
2019-01-22T06:32:42.425Z,35.43
2019-01-22T06:35:53.530Z,38.23
2019-01-22T06:38:44.235Z,36.73
2019-01-22T06:41:24.220Z,34.53
2019-01-22T06:44:04.547Z,38.30
2019-01-22T06:46:38.737Z,36.53
2019-01-22T06:49:27.011Z,39.70
2019-01-22T06:52:21.122Z,37.33
2019-01-22T06:54:52.632Z,37.53
2019-01-22T06:57:42.016Z,38.37
2019-01-22T07:00:46.888Z,35.37
2019-01-22T07:03:44.262Z,36.77
2019-01-22T07:06:21.713Z,41.60
2019-01-22T07:09:11.462Z,40.00
2019-01-22T07:12:00.789Z,36.13
2019-01-22T07:14:56.073Z,39.63
2019-01-22T07:17:33.353Z,39.70
2019-01-22T07:20:11.058Z,36.97
2019-01-22T07:22:45.196Z,36.20
2019-01-22T07:25:19.470Z,35.80
2019-01-22T07:28:02.222Z,34.20
2019-01-22T07:30:48.987Z,37.20
2019-01-22T07:33:26.702Z,34.73
2019-01-22T07:36:07.077Z,32.97
2019-01-22T07:38:38.601Z,32.83
2019-01-22T07:41:13.027Z,33.20
2019-01-22T07:43:47.198Z,32.10
2019-01-22T07:46:21.460Z,31.33
2019-01-22T07:49:01.875Z,30.97
2019-01-22T07:51:39.279Z,30.50
2019-01-22T07:54:29.033Z,37.20
2019-01-22T07:57:03.163Z,33.33
2019-01-22T07:59:49.691Z,36.17
2019-01-22T08:02:37.925Z,33.10
2019-01-22T08:05:29.086Z,33.87
2019-01-22T08:08:14.306Z,33.60
2019-01-22T08:11:11.207Z,33.23
2019-01-22T08:13:45.654Z,32.60
2019-01-22T08:16:33.859Z,31.17
2019-01-22T08:19:14.395Z,32.30
2019-01-22T08:21:45.908Z,26.97
2019-01-22T08:24:20.239Z,32.17
2019-01-22T08:27:21.319Z,30.73
2019-01-22T08:29:58.069Z,30.70
2019-01-22T08:32:59.735Z,29.00
2019-01-22T08:35:42.483Z,34.00
2019-01-22T08:38:36.583Z,35.03
2019-01-22T08:41:27.573Z,33.33
2019-01-22T08:44:11.396Z,33.30
2019-01-22T08:47:05.443Z,33.30
2019-01-22T08:49:53.537Z,35.13
2019-01-22T08:52:36.575Z,44.90
2019-01-22T08:55:10.770Z,32.20
2019-01-22T08:58:00.085Z,32.87
2019-01-22T09:01:06.291Z,31.00
2019-01-22T09:03:40.276Z,31.37
2019-01-22T09:06:17.507Z,32.13
2019-01-22T09:08:51.973Z,33.60
2019-01-22T09:11:40.845Z,34.77
2019-01-22T09:14:21.452Z,31.33
2019-01-22T09:17:02.374Z,30.17
2019-01-22T09:19:39.715Z,31.93
2019-01-22T09:22:14.114Z,32.97
2019-01-22T09:24:54.474Z,31.07
2019-01-22T09:27:44.059Z,33.63
2019-01-22T09:30:33.449Z,32.90
2019-01-22T09:33:19.800Z,31.80
2019-01-22T09:36:12.236Z,32.83
2019-01-22T09:38:40.506Z,30.43
2019-01-22T09:41:08.754Z,30.73
2019-01-22T09:43:37.003Z,30.87
2019-01-22T09:46:05.257Z,30.23
2019-01-22T09:48:33.526Z,31.17
2019-01-22T09:51:01.768Z,30.83
2019-01-22T09:53:30.026Z,32.07
2019-01-22T09:56:00.743Z,29.80
2019-01-22T09:58:28.243Z,32.07
2019-01-22T10:00:56.491Z,32.53
2019-01-22T10:03:24.735Z,33.10
2019-01-22T10:05:52.991Z,32.40
2019-01-22T10:08:21.231Z,31.27
2019-01-22T10:10:49.486Z,31.40
2019-01-22T10:13:17.774Z,32.83
2019-01-22T10:15:46.047Z,32.77
2019-01-22T10:18:14.280Z,31.80
2019-01-22T10:20:42.529Z,33.67
2019-01-22T10:23:10.766Z,29.27
2019-01-22T10:25:39.018Z,29.80
2019-01-22T10:28:07.259Z,27.83
2019-01-22T10:30:35.511Z,29.90
2019-01-22T10:33:06.443Z,30.40
2019-01-22T10:35:34.696Z,33.20
2019-01-22T10:38:02.930Z,29.80
2019-01-22T10:40:31.179Z,29.73
2019-01-22T10:42:59.427Z,29.67
2019-01-22T10:45:27.694Z,27.30
2019-01-22T10:47:55.927Z,28.80
2019-01-22T10:50:24.203Z,27.73
2019-01-22T10:52:52.439Z,28.37
2019-01-22T10:55:20.715Z,26.57
2019-01-22T10:57:48.966Z,29.20
2019-01-22T11:00:24.358Z,28.70
2019-01-22T11:02:52.596Z,28.90
2019-01-22T11:05:35.533Z,26.63
2019-01-22T11:08:04.934Z,27.60
2019-01-22T11:10:33.197Z,25.50
2019-01-22T11:13:01.446Z,26.87
2019-01-22T11:15:29.709Z,26.13
2019-01-22T11:17:57.970Z,26.87
2019-01-22T11:20:31.238Z,24.93
2019-01-22T11:22:59.500Z,25.07
2019-01-22T11:25:32.445Z,24.57
2019-01-22T11:28:00.693Z,23.43
2019-01-22T11:30:28.966Z,24.67
2019-01-22T11:32:57.212Z,25.08
2019-01-22T11:35:25.835Z,22.47
2019-01-22T11:37:54.266Z,25.17
2019-01-22T11:40:31.234Z,24.27
2019-01-22T11:42:59.480Z,23.23
2019-01-22T11:45:27.850Z,23.37
2019-01-22T11:47:56.090Z,24.20
2019-01-22T11:50:24.358Z,24.13
2019-01-22T11:52:52.616Z,25.63
2019-01-22T11:55:20.884Z,25.77
2019-01-22T11:57:49.134Z,26.00
2019-01-22T12:00:30.546Z,25.20
2019-01-22T12:02:58.784Z,23.90
2019-01-22T12:05:27.052Z,24.30
2019-01-22T12:07:55.287Z,22.77
2019-01-22T12:10:23.536Z,24.50
2019-01-22T12:12:51.791Z,24.13
2019-01-22T12:15:20.299Z,25.53
2019-01-22T12:17:48.545Z,23.90
2019-01-22T12:20:25.703Z,24.07
2019-01-22T12:22:53.955Z,25.37
2019-01-22T12:25:22.222Z,24.43
2019-01-22T12:27:50.455Z,23.90
2019-01-22T12:30:24.393Z,23.17
2019-01-22T12:32:52.632Z,25.13
2019-01-22T12:35:21.060Z,23.40
2019-01-22T12:37:49.305Z,22.07
2019-01-22T12:40:27.573Z,21.43
2019-01-22T12:42:55.830Z,20.73
2019-01-22T12:45:43.515Z,21.13
2019-01-22T12:48:11.772Z,19.87
2019-01-22T12:50:40.038Z,22.40
2019-01-22T12:53:08.288Z,21.97
2019-01-22T12:55:36.636Z,22.83
2019-01-22T12:58:04.888Z,22.00
2019-01-22T13:00:35.550Z,22.90
2019-01-22T13:03:04.199Z,22.60
2019-01-22T13:05:47.018Z,23.33
2019-01-22T13:08:15.256Z,23.17
2019-01-22T13:10:43.520Z,22.37
2019-01-22T13:13:11.773Z,23.40
2019-01-22T13:15:40.015Z,24.23
2019-01-22T13:18:08.257Z,21.67
2019-01-22T13:20:36.510Z,23.47
2019-01-22T13:23:04.769Z,24.27
2019-01-22T13:25:33.016Z,20.30
2019-01-22T13:28:01.264Z,23.77
2019-01-22T13:30:30.671Z,22.67
2019-01-22T13:32:59.176Z,23.60
2019-01-22T13:35:27.428Z,20.73
2019-01-22T13:37:55.690Z,22.20
2019-01-22T13:40:23.943Z,21.80
2019-01-22T13:42:52.213Z,22.87
2019-01-22T13:45:32.763Z,22.20
2019-01-22T13:48:02.460Z,22.00
2019-01-22T13:50:30.707Z,22.00
2019-01-22T13:52:58.974Z,22.93
2019-01-22T13:55:29.926Z,23.67
2019-01-22T13:57:58.171Z,23.00
2019-01-22T14:00:30.041Z,22.13
2019-01-22T14:02:59.927Z,22.33
2019-01-22T14:05:28.827Z,22.43
2019-01-22T14:07:57.481Z,22.23
2019-01-22T14:10:25.889Z,22.60
2019-01-22T14:12:54.231Z,22.57
2019-01-22T14:15:25.473Z,24.83
2019-01-22T14:17:53.844Z,25.90
2019-01-22T14:20:22.230Z,23.40
2019-01-22T14:22:50.504Z,18.83
2019-01-22T14:25:20.603Z,22.27
2019-01-22T14:27:48.849Z,22.67
2019-01-22T14:30:20.390Z,21.83
2019-01-22T14:32:48.628Z,22.97
2019-01-22T14:35:16.882Z,23.00
2019-01-22T14:37:45.155Z,21.27
2019-01-22T14:40:15.015Z,23.00
2019-01-22T14:42:43.267Z,22.53
2019-01-22T14:45:14.515Z,21.37
2019-01-22T14:47:42.765Z,25.30
2019-01-22T14:50:14.204Z,23.87
2019-01-22T14:52:42.510Z,25.43
2019-01-22T14:55:10.817Z,23.70
2019-01-22T14:57:39.063Z,24.70
2019-01-22T15:00:10.563Z,25.97
2019-01-22T15:02:38.891Z,22.73
2019-01-22T15:05:07.982Z,23.37
2019-01-22T15:07:36.237Z,24.73
2019-01-22T15:10:08.029Z,24.10
2019-01-22T15:12:36.275Z,24.87
2019-01-22T15:15:07.347Z,23.73
2019-01-22T15:17:35.599Z,20.17
2019-01-22T15:20:07.587Z,22.50
2019-01-22T15:22:35.911Z,22.60
2019-01-22T15:25:06.789Z,22.90
2019-01-22T15:27:35.070Z,22.77
2019-01-22T15:30:05.061Z,25.30
2019-01-22T15:32:33.313Z,22.97
2019-01-22T15:35:01.566Z,23.90
2019-01-22T15:37:29.838Z,24.13
2019-01-22T15:39:58.091Z,23.93
2019-01-22T15:42:26.351Z,24.13
2019-01-22T15:44:54.603Z,25.00
2019-01-22T15:47:22.865Z,23.30
2019-01-22T15:49:51.129Z,25.43
2019-01-22T15:52:19.384Z,25.93
2019-01-22T15:54:48.551Z,23.80
2019-01-22T15:57:16.833Z,26.23
2019-01-22T15:59:45.093Z,24.23
2019-01-22T16:02:13.360Z,24.10
2019-01-22T16:04:41.601Z,24.90
2019-01-22T16:07:09.870Z,25.17
2019-01-22T16:09:38.120Z,22.17
2019-01-22T16:12:06.368Z,24.13
2019-01-22T16:14:34.619Z,24.37
2019-01-22T16:17:02.863Z,25.10
2019-01-22T16:19:31.117Z,25.27
2019-01-22T16:21:59.359Z,25.00
2019-01-22T16:24:27.626Z,23.47
2019-01-22T16:26:55.878Z,24.50
2019-01-22T16:29:24.389Z,24.83
2019-01-22T16:31:52.645Z,24.67
2019-01-22T16:34:20.897Z,23.90
2019-01-22T16:36:55.927Z,24.23
2019-01-22T16:39:24.196Z,23.27
2019-01-22T16:41:52.453Z,23.87
2019-01-22T16:44:20.703Z,22.20
2019-01-22T16:46:48.951Z,23.23
2019-01-22T16:49:17.221Z,21.70
2019-01-22T16:51:45.527Z,23.30
2019-01-22T16:54:13.779Z,22.57
2019-01-22T16:56:48.618Z,22.63
2019-01-22T16:59:17.177Z,22.73
2019-01-22T17:01:45.479Z,24.53
2019-01-22T17:04:13.728Z,25.10
2019-01-22T17:06:41.990Z,23.70
2019-01-22T17:09:10.247Z,24.53
2019-01-22T17:11:38.509Z,23.57
2019-01-22T17:14:06.773Z,22.43
2019-01-22T17:16:35.025Z,24.03
2019-01-22T17:19:03.276Z,23.43
2019-01-22T17:21:31.535Z,22.53
2019-01-22T17:23:59.878Z,23.17
2019-01-22T17:26:28.119Z,24.77
2019-01-22T17:28:56.434Z,27.33
2019-01-22T17:31:26.334Z,27.67
2019-01-22T17:33:55.466Z,23.43
2019-01-22T17:36:23.703Z,24.30
2019-01-22T17:38:51.959Z,26.57
2019-01-22T17:41:20.449Z,24.77
2019-01-22T17:43:48.795Z,25.43
2019-01-22T17:46:17.116Z,25.43
2019-01-22T17:48:45.379Z,23.93
2019-01-22T17:51:13.642Z,23.53
2019-01-22T17:53:42.832Z,23.00
2019-01-22T17:56:11.074Z,27.20
2019-01-22T17:58:39.332Z,21.40
2019-01-22T18:01:07.579Z,23.63
2019-01-22T18:03:35.936Z,23.67
2019-01-22T18:06:04.240Z,26.00
2019-01-22T18:08:32.560Z,25.17
2019-01-22T18:11:01.067Z,23.40
2019-01-22T18:13:29.337Z,26.07
2019-01-22T18:15:57.590Z,24.07
2019-01-22T18:18:26.117Z,26.37
2019-01-22T18:20:54.375Z,24.77
2019-01-22T18:23:22.642Z,25.70
2019-01-22T18:25:50.891Z,25.37
2019-01-22T18:28:19.143Z,24.50
2019-01-22T18:30:47.398Z,25.00
2019-01-22T18:33:15.655Z,27.70
2019-01-22T18:35:43.913Z,25.43
2019-01-22T18:38:12.180Z,26.30
2019-01-22T18:40:40.426Z,28.13
2019-01-22T18:43:28.140Z,26.60
2019-01-22T18:45:56.388Z,25.30
2019-01-22T18:48:24.660Z,28.07
2019-01-22T18:50:52.900Z,25.93
2019-01-22T18:53:21.164Z,26.63
2019-01-22T18:55:49.406Z,28.53
2019-01-22T18:58:17.661Z,29.73
2019-01-22T19:00:45.909Z,26.50
2019-01-22T19:03:14.170Z,26.27
2019-01-22T19:05:42.430Z,20.83
2019-01-22T19:08:10.674Z,26.40
2019-01-22T19:10:38.932Z,26.50
2019-01-22T19:13:07.179Z,29.13
2019-01-22T19:15:35.433Z,28.43
2019-01-22T19:18:03.688Z,30.13
2019-01-22T19:20:31.956Z,39.03
2019-01-22T19:23:00.200Z,28.47
2019-01-22T19:25:29.141Z,31.40
2019-01-22T19:27:57.401Z,31.57
2019-01-22T19:30:27.822Z,33.03
2019-01-22T19:32:56.074Z,32.83
2019-01-22T19:35:24.349Z,33.20
2019-01-22T19:37:52.598Z,34.40
2019-01-22T19:40:20.861Z,35.47
2019-01-22T19:42:49.122Z,36.73
2019-01-22T19:45:26.259Z,33.10
2019-01-22T19:47:54.585Z,31.30
2019-01-22T19:50:22.846Z,34.43
2019-01-22T19:52:51.090Z,33.40
2019-01-22T19:55:19.340Z,33.17
2019-01-22T19:57:47.602Z,30.33
2019-01-22T20:00:18.247Z,32.63
2019-01-22T20:02:46.569Z,30.70
2019-01-22T20:05:14.835Z,32.33
2019-01-22T20:07:43.075Z,32.23
2019-01-22T20:10:13.859Z,36.90
2019-01-22T20:12:42.117Z,38.70
2019-01-22T20:15:15.912Z,39.17
2019-01-22T20:17:44.171Z,36.47
2019-01-22T20:20:14.594Z,41.43
2019-01-22T20:22:42.853Z,38.07
2019-01-22T20:25:11.130Z,37.50
2019-01-22T20:27:39.384Z,43.00
2019-01-22T20:30:26.225Z,43.23
2019-01-22T20:32:54.482Z,42.97
2019-01-22T20:35:22.758Z,46.73
2019-01-22T20:37:51.010Z,47.97
2019-01-22T20:40:19.349Z,44.63
2019-01-22T20:42:47.615Z,43.93
2019-01-22T20:45:18.588Z,45.13
2019-01-22T20:47:46.831Z,43.03
2019-01-22T20:50:19.357Z,43.17
2019-01-22T20:52:45.453Z,45.83
2019-01-22T20:55:16.507Z,34.73
2019-01-22T20:57:44.753Z,41.00
2019-01-22T21:00:23.468Z,50.47
2019-01-22T21:02:51.729Z,47.20
2019-01-22T21:05:25.262Z,48.83
2019-01-22T21:07:53.507Z,51.70
2019-01-22T21:10:23.923Z,47.07
2019-01-22T21:12:52.167Z,36.83
2019-01-22T21:15:20.434Z,51.90
2019-01-22T21:17:49.267Z,46.77
2019-01-22T21:20:18.077Z,53.00
2019-01-22T21:22:46.341Z,40.17
2019-01-22T21:25:19.787Z,48.97
2019-01-22T21:27:48.027Z,44.60
2019-01-22T21:30:22.196Z,49.27
2019-01-22T21:32:50.482Z,44.67
2019-01-22T21:35:19.334Z,46.13
2019-01-22T21:37:49.309Z,43.73
2019-01-22T21:40:17.717Z,44.23
2019-01-22T21:42:46.084Z,45.50
2019-01-22T21:45:21.458Z,39.37
2019-01-22T21:47:49.709Z,48.87
2019-01-22T21:50:17.986Z,46.37
2019-01-22T21:52:46.261Z,51.17
2019-01-22T21:55:22.242Z,42.93
2019-01-22T21:57:50.498Z,49.03
2019-01-22T22:00:26.474Z,45.57
2019-01-22T22:02:54.791Z,42.83
2019-01-22T22:05:25.090Z,49.83
2019-01-22T22:07:53.349Z,52.80
2019-01-22T22:10:21.781Z,45.83
2019-01-22T22:12:50.049Z,49.47
2019-01-22T22:15:20.945Z,46.03
2019-01-22T22:17:49.398Z,48.30
2019-01-22T22:20:17.750Z,50.60
2019-01-22T22:22:45.986Z,49.17
2019-01-22T22:25:22.696Z,43.10
2019-01-22T22:27:50.938Z,45.33
2019-01-22T22:30:22.704Z,41.77
2019-01-22T22:32:50.941Z,40.40
2019-01-22T22:35:19.447Z,46.87
2019-01-22T22:37:47.705Z,45.70
2019-01-22T22:40:17.606Z,40.70
2019-01-22T22:42:45.853Z,46.17
2019-01-22T22:45:16.155Z,42.73
2019-01-22T22:47:44.394Z,48.00
2019-01-22T22:50:15.910Z,47.00
2019-01-22T22:52:44.155Z,37.13
2019-01-22T22:55:12.415Z,44.33
2019-01-22T22:57:40.708Z,49.27
2019-01-22T23:00:22.506Z,49.93
2019-01-22T23:02:50.765Z,46.77
2019-01-22T23:05:19.531Z,45.40
2019-01-22T23:07:47.848Z,42.40
2019-01-22T23:10:16.125Z,35.93
2019-01-22T23:12:44.382Z,42.63
2019-01-22T23:15:12.647Z,31.97
2019-01-22T23:17:40.910Z,42.00
2019-01-22T23:20:09.174Z,23.10
2019-01-22T23:22:37.441Z,45.30
2019-01-22T23:25:06.446Z,42.97
2019-01-22T23:27:34.695Z,47.73
2019-01-22T23:30:03.026Z,48.17
2019-01-22T23:32:31.300Z,42.53
2019-01-22T23:34:59.559Z,44.83
2019-01-22T23:37:27.825Z,41.40
2019-01-22T23:39:56.067Z,42.50
2019-01-22T23:42:24.333Z,40.47
2019-01-22T23:44:52.590Z,46.63
2019-01-22T23:47:20.857Z,46.43
2019-01-22T23:49:49.623Z,52.70
2019-01-22T23:52:17.879Z,47.53
2019-01-22T23:54:46.141Z,40.90
2019-01-22T23:57:14.394Z,42.70
2019-01-22T23:59:42.654Z,40.20
